Time;durP1;ratioP1;P1;durP2;ratioP2;P2;SDS_P1;SDS_P2;PMS_P1;PMS_P2;Temp;Humidity;BMP_temperature;BMP_pressure;BME280_temperature;BME280_humidity;BME280_pressure;Samples;Min_cycle;Max_cycle;Signal;HPM_P1;HPM_P2
2024/01/24 00:01:53;;;;;;;18.45;4.68;;;11.70;99.90;;;;;;5082091;28;20194;-35
2024/01/24 00:04:20;;;;;;;18.27;3.97;;;11.70;99.90;;;;;;5083828;28;20185;-40
2024/01/24 00:06:45;;;;;;;18.58;4.32;;;11.70;99.90;;;;;;5083140;28;20197;-40
2024/01/24 00:09:11;;;;;;;28.65;4.72;;;11.70;99.90;;;;;;5083194;28;20323;-40
2024/01/24 00:11:37;;;;;;;23.08;4.60;;;11.70;99.90;;;;;;5083728;28;20273;-39
2024/01/24 00:14:03;;;;;;;22.60;3.88;;;11.70;99.90;;;;;;5081280;28;20217;-41
2024/01/24 00:16:29;;;;;;;19.45;4.75;;;11.80;99.90;;;;;;5083313;28;20510;-37
2024/01/24 00:18:55;;;;;;;20.88;3.78;;;11.70;99.90;;;;;;5083275;28;20210;-38
2024/01/24 00:21:21;;;;;;;19.05;3.47;;;11.70;99.90;;;;;;5080875;28;20217;-40
2024/01/24 00:23:47;;;;;;;23.63;4.25;;;11.70;99.90;;;;;;5082983;28;20388;-38
2024/01/24 00:26:13;;;;;;;25.58;5.03;;;11.70;99.90;;;;;;5082691;28;20297;-40
2024/01/24 00:28:39;;;;;;;24.83;5.32;;;11.70;99.90;;;;;;5083267;28;20551;-37
2024/01/24 00:31:05;;;;;;;19.92;4.22;;;11.70;99.90;;;;;;5082817;28;20194;-41
2024/01/24 00:33:31;;;;;;;16.30;3.88;;;11.70;99.90;;;;;;5081869;28;20217;-42
2024/01/24 00:35:57;;;;;;;22.35;4.57;;;11.70;99.90;;;;;;5082608;28;20182;-39
2024/01/24 00:38:23;;;;;;;19.40;4.57;;;11.70;99.90;;;;;;5082738;28;20182;-40
2024/01/24 00:40:48;;;;;;;18.85;4.78;;;11.70;99.90;;;;;;5083083;28;20649;-40
2024/01/24 00:43:14;;;;;;;19.35;4.35;;;11.70;99.90;;;;;;5082334;28;20182;-42
2024/01/24 00:45:40;;;;;;;20.50;4.25;;;11.70;99.90;;;;;;5082284;28;20954;-37
2024/01/24 00:48:07;;;;;;;24.40;4.95;;;11.70;99.90;;;;;;5080757;28;20224;-39
2024/01/24 00:50:34;;;;;;;27.67;4.60;;;11.70;99.90;;;;;;5081710;28;20194;-43
2024/01/24 00:53:04;;;;;;;25.58;5.32;;;11.70;99.90;;;;;;5082906;28;20213;-39
2024/01/24 00:55:30;;;;;;;23.17;4.97;;;11.70;99.90;;;;;;5082104;28;20269;-44
2024/01/24 00:57:58;;;;;;;28.67;4.70;;;11.70;99.90;;;;;;5081150;28;20225;-39
2024/01/24 01:00:24;;;;;;;25.85;4.68;;;11.70;99.90;;;;;;5081785;28;20186;-38
2024/01/24 01:02:50;;;;;;;21.85;4.53;;;11.70;99.90;;;;;;5081607;28;20221;-41
2024/01/24 01:05:16;;;;;;;27.80;5.20;;;11.70;99.90;;;;;;5082456;28;20282;-40
2024/01/24 01:07:42;;;;;;;26.50;4.45;;;11.70;99.90;;;;;;5082172;28;20206;-42
2024/01/24 01:10:09;;;;;;;35.58;5.50;;;11.80;99.90;;;;;;5082594;28;20244;-40
2024/01/24 01:12:35;;;;;;;26.33;4.32;;;11.80;99.90;;;;;;5082029;28;20189;-37
2024/01/24 01:15:00;;;;;;;20.27;3.72;;;11.80;99.90;;;;;;5082074;28;20185;-41
2024/01/24 01:17:26;;;;;;;23.85;3.63;;;11.80;99.90;;;;;;5064253;28;20182;-40
2024/01/24 01:19:52;;;;;;;20.90;3.83;;;11.80;99.90;;;;;;5081558;28;20185;-45
2024/01/24 01:22:19;;;;;;;19.77;3.75;;;11.80;99.90;;;;;;5081243;28;20190;-43
2024/01/24 01:24:45;;;;;;;18.70;3.83;;;11.80;99.90;;;;;;5081165;28;20743;-41
2024/01/24 01:27:11;;;;;;;21.10;3.50;;;11.70;99.90;;;;;;5081699;28;20209;-40
2024/01/24 01:29:37;;;;;;;17.98;3.38;;;11.70;99.90;;;;;;5081626;28;20221;-39
2024/01/24 01:32:04;;;;;;;18.77;3.70;;;11.70;99.90;;;;;;5080649;28;20256;-41
2024/01/24 01:34:31;;;;;;;17.42;3.50;;;11.80;99.90;;;;;;5062623;28;20321;-44
2024/01/24 01:36:57;;;;;;;13.52;3.15;;;11.80;99.90;;;;;;5081847;28;20286;-41
2024/01/24 01:39:24;;;;;;;17.55;3.63;;;11.80;99.90;;;;;;5081554;28;20658;-42
2024/01/24 01:41:49;;;;;;;12.65;3.05;;;11.90;99.90;;;;;;5082157;28;20186;-37
2024/01/24 01:44:15;;;;;;;15.95;3.45;;;11.90;99.90;;;;;;5079968;28;20665;-42
2024/01/24 01:46:45;;;;;;;19.65;3.45;;;11.90;99.90;;;;;;5081191;28;20233;-39
2024/01/24 01:49:12;;;;;;;17.83;3.47;;;11.90;99.90;;;;;;5081492;28;20612;-38
2024/01/24 01:51:38;;;;;;;14.88;3.50;;;11.90;99.90;;;;;;5081746;28;20190;-39
2024/01/24 01:54:06;;;;;;;19.73;3.55;;;11.90;99.90;;;;;;5079031;28;20228;-41
2024/01/24 01:56:32;;;;;;;12.60;2.97;;;12.00;99.90;;;;;;5081525;28;20186;-37
2024/01/24 01:58:58;;;;;;;14.40;2.72;;;12.00;99.90;;;;;;5081286;28;20242;-42
2024/01/24 02:01:24;;;;;;;20.77;3.63;;;12.00;99.90;;;;;;5080014;28;20300;-40
2024/01/24 02:03:50;;;;;;;11.57;2.35;;;12.10;99.90;;;;;;5081238;28;20259;-44
2024/01/24 02:06:16;;;;;;;15.35;2.80;;;12.10;99.90;;;;;;5080084;28;20274;-39
2024/01/24 02:08:43;;;;;;;14.05;2.53;;;12.10;99.90;;;;;;5063299;28;20241;-42
2024/01/24 02:11:10;;;;;;;9.48;2.50;;;12.20;99.90;;;;;;5080879;28;20186;-38
2024/01/24 02:13:36;;;;;;;12.57;2.72;;;12.20;99.90;;;;;;5081536;28;20189;-42
2024/01/24 02:16:05;;;;;;;5.05;1.65;;;12.20;99.90;;;;;;5081253;28;20182;-39
2024/01/24 02:18:31;;;;;;;13.93;2.70;;;12.20;99.90;;;;;;5081109;28;20182;-39
2024/01/24 02:20:57;;;;;;;12.93;2.80;;;12.30;99.90;;;;;;5081344;28;20193;-40
2024/01/24 02:23:25;;;;;;;16.63;2.53;;;12.30;99.90;;;;;;5080960;28;20186;-39
2024/01/24 02:25:52;;;;;;;11.70;2.95;;;12.40;99.90;;;;;;5080508;28;20269;-43
2024/01/24 02:28:18;;;;;;;6.70;2.13;;;12.40;99.90;;;;;;5080872;28;20220;-38
2024/01/24 02:30:45;;;;;;;9.73;2.60;;;12.40;99.90;;;;;;5081385;28;20658;-44
2024/01/24 02:33:11;;;;;;;13.85;2.80;;;12.50;99.90;;;;;;5080081;28;20595;-40
2024/01/24 02:35:37;;;;;;;11.80;2.80;;;12.50;99.90;;;;;;5081112;28;20194;-43
2024/01/24 02:38:03;;;;;;;10.15;2.33;;;12.50;99.90;;;;;;5081201;28;20178;-44
2024/01/24 02:40:29;;;;;;;13.13;3.10;;;12.50;99.90;;;;;;5080963;28;20247;-40
2024/01/24 02:42:55;;;;;;;7.78;2.22;;;12.50;99.90;;;;;;5080824;28;20185;-38
2024/01/24 02:45:21;;;;;;;9.65;2.53;;;12.50;99.90;;;;;;5080355;28;20209;-39
2024/01/24 02:47:47;;;;;;;13.50;2.22;;;12.50;99.90;;;;;;5080481;28;20271;-43
2024/01/24 02:50:13;;;;;;;10.60;2.17;;;12.60;99.90;;;;;;5081106;28;20184;-38
2024/01/24 02:52:39;;;;;;;12.93;2.97;;;12.60;99.90;;;;;;5079129;28;20194;-41
2024/01/24 02:55:07;;;;;;;13.52;2.72;;;12.60;99.90;;;;;;5081020;28;20736;-45
2024/01/24 02:57:33;;;;;;;13.65;3.10;;;12.60;99.90;;;;;;5080697;28;22023;-43
2024/01/24 02:59:59;;;;;;;11.73;2.42;;;12.60;99.90;;;;;;5080938;28;20197;-40
2024/01/24 03:02:26;;;;;;;12.05;2.33;;;12.60;99.90;;;;;;5080355;28;20669;-39
2024/01/24 03:04:52;;;;;;;11.40;2.78;;;12.50;99.90;;;;;;5080211;28;20197;-44
2024/01/24 03:07:18;;;;;;;13.88;3.15;;;12.50;99.90;;;;;;5084872;28;20205;-38
2024/01/24 03:09:44;;;;;;;14.40;3.03;;;12.50;99.90;;;;;;5084346;28;20193;-44
2024/01/24 03:12:12;;;;;;;19.63;3.55;;;12.50;99.90;;;;;;5084528;28;20208;-37
2024/01/24 03:14:38;;;;;;;17.35;3.13;;;12.40;99.90;;;;;;5084507;28;20202;-42
2024/01/24 03:17:03;;;;;;;14.88;2.53;;;12.40;99.90;;;;;;5084286;28;20685;-41
2024/01/24 03:19:29;;;;;;;20.90;3.13;;;12.30;99.90;;;;;;5083509;28;20626;-40
2024/01/24 03:21:55;;;;;;;22.88;4.22;;;12.30;99.90;;;;;;5084231;28;20194;-44
2024/01/24 03:24:21;;;;;;;17.45;3.83;;;12.20;99.90;;;;;;5084111;28;21271;-39
2024/01/24 03:26:47;;;;;;;15.43;3.33;;;12.20;99.90;;;;;;5083296;28;20209;-41
2024/01/24 03:29:13;;;;;;;22.65;3.72;;;12.10;99.90;;;;;;5082879;28;20238;-43
2024/01/24 03:31:43;;;;;;;16.60;3.25;;;12.10;99.90;;;;;;5084399;28;20190;-45
2024/01/24 03:34:11;;;;;;;19.27;3.95;;;12.00;99.90;;;;;;5083618;28;20621;-43
2024/01/24 03:36:37;;;;;;;19.08;3.70;;;12.00;99.90;;;;;;5082503;28;20597;-40
2024/01/24 03:39:03;;;;;;;26.17;4.40;;;11.90;99.90;;;;;;5081295;28;20197;-41
2024/01/24 03:41:30;;;;;;;20.90;3.60;;;11.90;99.90;;;;;;5084675;28;20267;-42
2024/01/24 03:43:56;;;;;;;14.55;2.88;;;11.80;99.90;;;;;;5083848;28;20198;-41
2024/01/24 03:46:22;;;;;;;23.00;3.88;;;11.80;99.90;;;;;;5082275;28;20213;-39
2024/01/24 03:48:47;;;;;;;21.70;4.35;;;11.80;99.90;;;;;;5083722;28;20190;-40
2024/01/24 03:51:13;;;;;;;23.23;4.30;;;11.80;99.90;;;;;;5083744;28;20254;-39
2024/01/24 03:53:39;;;;;;;25.23;3.67;;;11.80;99.90;;;;;;5083765;28;20209;-39
2024/01/24 03:56:06;;;;;;;22.00;4.07;;;11.90;99.90;;;;;;5083671;28;20591;-40
2024/01/24 03:58:32;;;;;;;25.25;4.45;;;11.90;99.90;;;;;;5082657;28;20227;-42
2024/01/24 04:00:58;;;;;;;26.27;4.10;;;11.90;99.90;;;;;;5083677;28;21016;-40
2024/01/24 04:03:24;;;;;;;23.67;4.78;;;11.90;99.90;;;;;;5083170;28;20190;-39
2024/01/24 04:05:50;;;;;;;12.70;2.80;;;11.90;99.90;;;;;;5084062;28;20205;-40
2024/01/24 04:08:16;;;;;;;25.00;4.15;;;11.90;99.90;;;;;;5083479;28;20205;-42
2024/01/24 04:10:42;;;;;;;16.10;3.80;;;11.90;99.90;;;;;;5083767;28;20185;-44
2024/01/24 04:13:08;;;;;;;23.98;4.30;;;12.00;99.90;;;;;;5083676;28;20594;-40
2024/01/24 04:15:34;;;;;;;21.80;4.57;;;12.00;99.90;;;;;;5081744;28;20200;-41
2024/01/24 04:18:00;;;;;;;20.77;3.72;;;12.00;99.90;;;;;;5083069;28;20201;-40
2024/01/24 04:20:26;;;;;;;32.72;4.40;;;12.00;99.90;;;;;;5082804;28;20292;-39
2024/01/24 04:22:53;;;;;;;27.08;5.13;;;12.00;99.90;;;;;;5082222;28;20194;-43
2024/01/24 04:25:19;;;;;;;27.52;5.60;;;11.90;99.90;;;;;;5083591;28;20224;-43
2024/01/24 04:27:45;;;;;;;22.60;4.53;;;11.80;99.90;;;;;;5082573;28;20309;-41
2024/01/24 04:30:12;;;;;;;19.30;3.65;;;11.70;99.90;;;;;;5082916;28;20740;-47
2024/01/24 04:32:37;;;;;;;21.27;4.22;;;11.70;99.90;;;;;;5081464;28;20313;-39
2024/01/24 04:35:04;;;;;;;15.77;3.30;;;11.70;99.90;;;;;;5082877;28;20268;-38
2024/01/24 04:37:29;;;;;;;16.80;3.42;;;11.70;99.90;;;;;;5081160;28;20300;-40
2024/01/24 04:39:55;;;;;;;28.50;5.10;;;11.70;99.90;;;;;;5080623;28;20725;-39
2024/01/24 04:42:21;;;;;;;22.92;4.68;;;11.70;99.90;;;;;;5082590;28;20202;-45
2024/01/24 04:44:47;;;;;;;30.25;4.80;;;11.60;99.90;;;;;;5082683;28;20185;-40
2024/01/24 04:47:13;;;;;;;29.27;4.65;;;11.60;99.90;;;;;;5082995;28;20233;-40
2024/01/24 04:49:39;;;;;;;27.70;5.20;;;11.60;99.90;;;;;;5083043;28;20200;-47
2024/01/24 04:52:05;;;;;;;21.90;4.30;;;11.60;99.90;;;;;;5082357;28;21121;-43
2024/01/24 04:54:35;;;;;;;20.50;4.35;;;11.60;99.90;;;;;;5082594;28;20265;-43
2024/01/24 04:57:02;;;;;;;28.75;5.38;;;11.50;99.90;;;;;;5082329;28;20186;-38
2024/01/24 04:59:29;;;;;;;33.28;5.85;;;11.50;99.90;;;;;;5082734;28;20194;-42
2024/01/24 05:01:54;;;;;;;38.20;6.03;;;11.50;99.90;;;;;;5082245;28;20242;-38
2024/01/24 05:04:20;;;;;;;42.92;7.57;;;11.50;99.90;;;;;;5081692;28;20194;-39
2024/01/24 05:06:46;;;;;;;37.63;6.00;;;11.50;99.90;;;;;;5081643;28;20669;-40
2024/01/24 05:09:14;;;;;;;32.70;5.40;;;11.50;99.90;;;;;;5082430;28;20182;-38
2024/01/24 05:11:42;;;;;;;26.35;4.65;;;11.50;99.90;;;;;;5082119;28;21097;-43
2024/01/24 05:14:08;;;;;;;28.95;5.32;;;11.40;99.90;;;;;;5081995;28;20178;-40
2024/01/24 05:16:39;;;;;;;29.73;5.68;;;11.40;99.90;;;;;;5081427;28;20193;-44
2024/01/24 05:19:05;;;;;;;33.42;6.00;;;11.30;99.90;;;;;;5081806;28;20194;-43
2024/01/24 05:21:42;;;;;;;37.40;5.63;;;11.30;99.90;;;;;;5082038;28;20653;-44
2024/01/24 05:24:09;;;;;;;37.88;5.80;;;11.30;99.90;;;;;;5082000;28;20254;-42
2024/01/24 05:26:36;;;;;;;25.58;4.40;;;11.30;99.90;;;;;;5081822;28;20336;-42
2024/01/24 05:29:04;;;;;;;41.35;6.78;;;11.40;99.90;;;;;;5082079;28;20189;-46
2024/01/24 05:31:30;;;;;;;42.15;6.47;;;11.40;99.90;;;;;;5081505;28;20594;-44
2024/01/24 05:33:57;;;;;;;33.42;5.88;;;11.40;99.90;;;;;;5082340;28;20189;-42
2024/01/24 05:36:22;;;;;;;35.85;6.57;;;11.40;99.90;;;;;;5080547;28;20267;-41
2024/01/24 05:38:48;;;;;;;42.15;6.32;;;11.30;99.90;;;;;;5063057;28;20634;-40
2024/01/24 05:41:14;;;;;;;42.58;7.43;;;11.40;99.90;;;;;;5081099;28;20182;-40
2024/01/24 05:43:40;;;;;;;40.30;6.18;;;11.30;99.90;;;;;;5081977;28;20185;-40
2024/01/24 05:46:06;;;;;;;31.85;6.35;;;11.30;99.90;;;;;;5080866;28;20182;-43
2024/01/24 05:48:32;;;;;;;29.40;4.75;;;11.30;99.90;;;;;;5080712;28;20217;-43
2024/01/24 05:50:58;;;;;;;32.03;5.50;;;11.30;99.90;;;;;;5081422;28;20210;-43
2024/01/24 05:53:24;;;;;;;36.97;7.30;;;11.20;99.90;;;;;;5081119;28;20217;-38
2024/01/24 05:55:50;;;;;;;49.15;7.25;;;11.20;99.90;;;;;;5080173;28;20197;-39
2024/01/24 05:58:15;;;;;;;32.72;5.07;;;11.20;99.90;;;;;;5081310;28;20214;-45
2024/01/24 06:00:41;;;;;;;31.80;5.63;;;11.20;99.90;;;;;;5080752;28;20251;-41
2024/01/24 06:03:07;;;;;;;37.58;5.35;;;11.20;99.90;;;;;;5096230;28;20212;-46
2024/01/24 06:05:33;;;;;;;37.83;5.68;;;11.20;99.90;;;;;;5081712;28;20196;-43
2024/01/24 06:07:59;;;;;;;33.38;6.32;;;11.20;99.90;;;;;;5080735;28;20213;-42
2024/01/24 06:10:25;;;;;;;45.95;7.15;;;11.20;99.90;;;;;;5081216;28;20568;-41
2024/01/24 06:12:51;;;;;;;39.90;7.22;;;11.20;99.90;;;;;;5081151;28;20292;-40
2024/01/24 06:15:18;;;;;;;30.65;5.78;;;11.10;99.90;;;;;;5080812;28;20217;-41
2024/01/24 06:17:44;;;;;;;28.85;5.15;;;11.20;99.90;;;;;;5079783;28;20199;-43
2024/01/24 06:20:11;;;;;;;43.95;7.72;;;11.20;99.90;;;;;;5080630;28;20658;-39
2024/01/24 06:22:37;;;;;;;41.78;6.72;;;11.20;99.90;;;;;;5080207;28;20390;-41
2024/01/24 06:25:07;;;;;;;36.13;6.28;;;11.20;99.90;;;;;;5080667;28;20213;-47
2024/01/24 06:27:34;;;;;;;34.70;6.65;;;11.20;99.90;;;;;;5079282;28;20232;-38
2024/01/24 06:30:00;;;;;;;47.70;7.90;;;11.20;99.90;;;;;;5079335;28;20228;-43
2024/01/24 06:32:26;;;;;;;42.95;7.15;;;11.20;99.90;;;;;;5080186;28;20221;-42
2024/01/24 06:34:52;;;;;;;46.33;7.82;;;11.20;99.90;;;;;;5081102;28;20228;-41
2024/01/24 06:37:18;;;;;;;38.38;7.07;;;11.20;99.90;;;;;;5079915;28;20186;-43
2024/01/24 06:39:44;;;;;;;40.85;7.53;;;11.10;99.90;;;;;;5079609;28;20695;-39
2024/01/24 06:42:10;;;;;;;47.70;7.15;;;11.00;99.90;;;;;;5080481;28;20235;-40
2024/01/24 06:44:36;;;;;;;50.30;8.73;;;10.90;99.90;;;;;;5061832;28;20192;-42
2024/01/24 06:47:02;;;;;;;39.03;6.63;;;10.90;99.90;;;;;;5079751;28;20210;-44
2024/01/24 06:49:28;;;;;;;39.97;7.03;;;10.90;99.90;;;;;;5080634;28;20181;-43
2024/01/24 06:51:54;;;;;;;44.00;6.82;;;10.90;99.90;;;;;;5080786;28;20217;-43
2024/01/24 06:54:20;;;;;;;46.03;7.40;;;10.90;99.90;;;;;;5080316;28;20194;-47
2024/01/24 06:56:46;;;;;;;34.88;7.03;;;10.80;99.90;;;;;;5078865;28;20204;-44
2024/01/24 06:59:12;;;;;;;30.48;5.47;;;10.80;99.90;;;;;;5080411;28;20273;-44
2024/01/24 07:01:38;;;;;;;30.75;6.82;;;10.80;99.90;;;;;;5078883;28;21000;-41
2024/01/24 07:04:04;;;;;;;39.60;6.22;;;10.80;99.90;;;;;;5080090;28;20560;-39
2024/01/24 07:06:29;;;;;;;37.25;6.80;;;10.80;99.90;;;;;;5080564;28;20210;-39
2024/01/24 07:08:56;;;;;;;29.58;5.82;;;10.80;99.90;;;;;;5080583;28;20196;-39
2024/01/24 07:11:22;;;;;;;46.38;7.18;;;10.80;99.90;;;;;;5078969;28;20186;-40
2024/01/24 07:13:48;;;;;;;40.05;6.05;;;10.90;99.90;;;;;;5080525;28;20300;-45
2024/01/24 07:16:14;;;;;;;47.33;7.82;;;10.90;99.90;;;;;;5080554;28;20190;-40
2024/01/24 07:18:39;;;;;;;37.90;6.97;;;10.90;99.90;;;;;;5080179;28;20204;-43
2024/01/24 07:21:07;;;;;;;38.08;7.30;;;10.90;99.90;;;;;;5078616;28;20213;-43
2024/01/24 07:23:33;;;;;;;32.95;6.00;;;10.90;99.90;;;;;;5061113;28;20186;-40
2024/01/24 07:25:59;;;;;;;48.80;6.95;;;10.80;99.90;;;;;;5080910;28;20182;-44
2024/01/24 07:28:29;;;;;;;38.88;6.70;;;10.80;99.90;;;;;;5061276;28;20206;-38
2024/01/24 07:30:55;;;;;;;41.97;6.85;;;10.80;99.90;;;;;;5079250;28;21334;-40
2024/01/24 07:33:22;;;;;;;36.60;7.07;;;10.70;99.90;;;;;;5043832;28;20232;-39
2024/01/24 07:35:48;;;;;;;38.83;6.05;;;10.70;99.90;;;;;;5060659;28;20279;-42
2024/01/24 07:38:13;;;;;;;24.98;5.50;;;10.70;99.90;;;;;;5080259;28;20209;-41
2024/01/24 07:40:39;;;;;;;39.05;5.93;;;10.70;99.90;;;;;;5080236;28;20194;-44
2024/01/24 07:43:06;;;;;;;42.90;7.50;;;10.60;99.90;;;;;;5045922;28;20244;-46
2024/01/24 07:45:32;;;;;;;36.22;6.50;;;10.70;99.90;;;;;;5079826;28;20280;-41
2024/01/24 07:47:58;;;;;;;31.48;6.60;;;10.70;99.90;;;;;;5079691;28;20740;-45
2024/01/24 07:50:24;;;;;;;35.45;6.68;;;10.70;99.90;;;;;;5078338;28;20246;-40
2024/01/24 07:52:50;;;;;;;39.47;7.30;;;10.70;99.90;;;;;;5082151;28;20688;-41
2024/01/24 07:55:16;;;;;;;44.03;7.30;;;10.70;99.90;;;;;;5064538;28;20185;-42
2024/01/24 07:57:41;;;;;;;34.35;5.93;;;10.70;99.90;;;;;;5065074;28;20190;-41
2024/01/24 08:00:08;;;;;;;42.55;6.35;;;10.70;99.90;;;;;;5082893;28;20239;-44
2024/01/24 08:02:34;;;;;;;44.97;7.50;;;10.60;99.90;;;;;;5083761;28;20197;-44
2024/01/24 08:05:00;;;;;;;23.45;5.78;;;10.60;99.90;;;;;;5081368;28;20200;-44
2024/01/24 08:07:26;;;;;;;34.85;7.10;;;10.60;99.90;;;;;;5083563;28;20209;-40
2024/01/24 08:09:52;;;;;;;38.55;6.60;;;10.60;99.90;;;;;;5081096;28;20248;-48
2024/01/24 08:12:18;;;;;;;34.55;5.88;;;10.60;99.90;;;;;;5081752;28;20186;-44
2024/01/24 08:14:44;;;;;;;49.10;7.60;;;10.60;99.90;;;;;;5081943;28;20181;-49
2024/01/24 08:17:10;;;;;;;37.58;7.18;;;10.60;99.90;;;;;;5081571;28;20194;-40
2024/01/24 08:19:38;;;;;;;40.20;7.10;;;10.60;99.90;;;;;;5082367;28;20634;-40
2024/01/24 08:22:04;;;;;;;47.17;7.65;;;10.60;99.90;;;;;;5083064;28;20186;-44
2024/01/24 08:24:30;;;;;;;42.80;7.25;;;10.60;99.90;;;;;;5081544;28;20221;-42
2024/01/24 08:26:56;;;;;;;35.67;7.28;;;10.60;99.90;;;;;;5081340;28;20244;-48
2024/01/24 08:29:25;;;;;;;33.88;5.95;;;10.60;99.90;;;;;;5081888;28;20673;-43
2024/01/24 08:31:51;;;;;;;43.83;7.68;;;10.70;99.90;;;;;;5082675;28;20222;-40
2024/01/24 08:34:17;;;;;;;43.22;6.93;;;10.70;99.90;;;;;;5080763;28;20247;-44
2024/01/24 08:36:44;;;;;;;30.17;6.40;;;10.60;99.90;;;;;;5079892;28;20692;-44
2024/01/24 08:39:10;;;;;;;43.17;7.63;;;10.60;99.90;;;;;;5080461;28;20268;-42
2024/01/24 08:41:36;;;;;;;35.38;7.18;;;10.60;99.90;;;;;;5081188;28;20206;-40
2024/01/24 08:44:02;;;;;;;28.90;5.20;;;10.60;99.90;;;;;;5082039;28;20731;-41
2024/01/24 08:46:28;;;;;;;30.67;5.78;;;10.60;99.90;;;;;;5079049;28;20653;-44
2024/01/24 08:48:54;;;;;;;37.38;6.35;;;10.60;99.90;;;;;;5082807;28;20182;-43
2024/01/24 08:51:22;;;;;;;42.75;8.23;;;10.50;99.90;;;;;;5082158;28;20190;-40
2024/01/24 08:53:48;;;;;;;38.83;5.90;;;10.60;99.90;;;;;;5082393;28;20285;-42
2024/01/24 08:56:14;;;;;;;29.00;6.15;;;10.60;99.90;;;;;;5081473;28;20265;-40
2024/01/24 08:58:40;;;;;;;41.45;7.47;;;10.60;99.90;;;;;;5081957;28;20221;-44
2024/01/24 09:01:06;;;;;;;34.78;5.57;;;10.60;99.90;;;;;;5082098;28;20968;-40
2024/01/24 09:03:32;;;;;;;41.70;6.53;;;10.60;99.90;;;;;;5081599;28;20243;-45
2024/01/24 09:05:58;;;;;;;37.78;6.72;;;10.60;99.90;;;;;;5082456;28;20187;-42
2024/01/24 09:08:25;;;;;;;34.25;6.93;;;10.60;99.90;;;;;;5082130;28;20209;-43
2024/01/24 09:10:52;;;;;;;38.13;6.57;;;10.60;99.90;;;;;;5081247;28;20198;-40
2024/01/24 09:13:21;;;;;;;44.30;7.40;;;10.60;99.90;;;;;;5082461;28;20635;-40
2024/01/24 09:15:47;;;;;;;42.97;6.65;;;10.60;99.90;;;;;;5081851;28;20197;-43
2024/01/24 09:18:14;;;;;;;27.67;5.55;;;10.60;99.90;;;;;;5082241;28;20185;-39
2024/01/24 09:20:40;;;;;;;27.98;4.95;;;10.60;99.90;;;;;;5082293;28;20577;-44
2024/01/24 09:23:05;;;;;;;44.88;6.75;;;10.60;99.90;;;;;;5081976;28;20178;-42
2024/01/24 09:25:31;;;;;;;37.55;6.80;;;10.70;99.90;;;;;;5080842;28;20562;-41
2024/01/24 09:27:57;;;;;;;40.47;7.22;;;10.70;99.90;;;;;;5081567;28;20290;-38
2024/01/24 09:30:23;;;;;;;27.27;5.00;;;10.70;99.90;;;;;;5080303;28;20701;-47
2024/01/24 09:32:49;;;;;;;39.30;7.97;;;10.70;99.90;;;;;;5080753;28;21002;-39
2024/01/24 09:35:15;;;;;;;39.35;7.10;;;10.70;99.90;;;;;;5081495;28;20189;-46
2024/01/24 09:37:41;;;;;;;36.63;6.05;;;10.70;99.90;;;;;;5080579;28;20229;-40
2024/01/24 09:40:09;;;;;;;43.95;6.57;;;10.70;99.90;;;;;;5061417;28;20197;-44
2024/01/24 09:42:42;;;;;;;36.25;6.88;;;10.80;99.90;;;;;;5079339;28;20198;-43
2024/01/24 09:45:09;;;;;;;35.13;6.60;;;10.80;99.90;;;;;;5079521;28;20222;-40
2024/01/24 09:47:37;;;;;;;39.95;6.93;;;10.80;99.90;;;;;;5081470;28;20206;-42
2024/01/24 09:50:04;;;;;;;41.88;7.10;;;10.80;99.90;;;;;;5081473;28;20194;-45
2024/01/24 09:52:34;;;;;;;47.55;7.63;;;10.90;99.90;;;;;;5081033;28;20197;-45
2024/01/24 09:55:04;;;;;;;40.13;7.10;;;10.90;99.90;;;;;;5081026;28;20298;-43
2024/01/24 09:57:32;;;;;;;29.52;6.93;;;10.90;99.90;;;;;;5080451;28;20198;-44
2024/01/24 09:59:58;;;;;;;39.55;6.55;;;10.90;99.90;;;;;;5081110;28;20232;-45
2024/01/24 10:02:28;;;;;;;32.20;6.10;;;10.90;99.90;;;;;;5080986;28;20190;-50
2024/01/24 10:04:54;;;;;;;39.20;7.03;;;10.90;99.90;;;;;;5079728;28;20289;-44
2024/01/24 10:07:20;;;;;;;44.95;6.57;;;11.00;99.90;;;;;;5080876;28;20248;-43
2024/01/24 10:10:09;;;;;;;45.30;7.22;;;10.90;99.90;;;;;;5080420;28;20260;-44
2024/01/24 10:12:36;;;;;;;29.70;5.72;;;11.00;99.90;;;;;;5080468;28;20624;-42
2024/01/24 10:15:02;;;;;;;44.40;7.22;;;11.00;99.90;;;;;;5079155;28;20186;-40
2024/01/24 10:17:30;;;;;;;34.08;6.05;;;11.00;99.90;;;;;;5079686;28;20200;-36
2024/01/24 10:19:58;;;;;;;34.03;6.07;;;11.00;99.90;;;;;;5079853;28;20220;-42
2024/01/24 10:22:24;;;;;;;40.50;7.28;;;11.10;99.90;;;;;;5080528;28;20197;-47
2024/01/24 10:24:53;;;;;;;37.45;6.75;;;11.10;99.90;;;;;;5080670;28;20197;-40
2024/01/24 10:27:19;;;;;;;28.42;5.13;;;11.10;99.90;;;;;;5080565;28;20288;-42
2024/01/24 10:29:45;;;;;;;30.35;5.85;;;11.20;99.90;;;;;;5079351;28;20210;-41
2024/01/24 10:32:12;;;;;;;36.47;6.97;;;11.30;99.90;;;;;;5080476;28;20217;-40
2024/01/24 10:34:38;;;;;;;31.23;5.45;;;11.30;99.90;;;;;;5062847;28;20182;-41
2024/01/24 10:37:07;;;;;;;33.30;5.93;;;11.30;99.90;;;;;;5080822;28;20186;-43
2024/01/24 10:39:35;;;;;;;42.10;6.63;;;11.30;99.90;;;;;;5079139;28;20558;-43
2024/01/24 10:42:08;;;;;;;35.13;6.13;;;11.30;99.90;;;;;;5080504;28;20605;-46
2024/01/24 10:44:35;;;;;;;31.65;5.95;;;11.40;99.90;;;;;;5080086;28;20555;-44
2024/01/24 10:47:04;;;;;;;37.13;6.05;;;11.40;99.90;;;;;;5080445;28;20229;-43
2024/01/24 10:49:31;;;;;;;41.67;7.13;;;11.40;99.90;;;;;;5080223;28;20193;-47
2024/01/24 10:51:58;;;;;;;35.13;6.40;;;11.50;99.90;;;;;;5081226;28;20213;-47
2024/01/24 10:54:26;;;;;;;35.13;6.65;;;11.40;99.90;;;;;;5077941;28;20934;-40
2024/01/24 10:56:53;;;;;;;36.45;6.63;;;11.40;99.90;;;;;;5079444;28;20201;-42
2024/01/24 10:59:20;;;;;;;36.33;6.68;;;11.50;99.90;;;;;;5079885;28;20194;-43
2024/01/24 11:01:47;;;;;;;27.85;5.90;;;11.50;99.90;;;;;;5077987;28;20680;-40
2024/01/24 11:04:19;;;;;;;34.03;6.53;;;11.50;99.90;;;;;;5080264;28;20565;-44
2024/01/24 11:07:09;;;;;;;35.10;7.07;;;11.50;99.90;;;;;;5080069;28;20255;-41
2024/01/24 11:09:57;;;;;;;20.15;4.57;;;11.50;99.90;;;;;;5080012;28;20341;-40
2024/01/24 11:12:23;;;;;;;25.75;4.78;;;11.50;99.90;;;;;;5079999;28;20246;-44
2024/01/24 11:14:51;;;;;;;42.90;7.20;;;11.50;99.90;;;;;;5080502;28;20201;-43
2024/01/24 11:17:17;;;;;;;39.78;5.55;;;11.50;99.90;;;;;;5080084;28;20178;-44
2024/01/24 11:19:42;;;;;;;37.92;7.03;;;11.50;99.90;;;;;;5079444;28;20642;-41
2024/01/24 11:22:10;;;;;;;28.85;6.80;;;11.50;99.90;;;;;;5080129;28;20675;-42
2024/01/24 11:24:43;;;;;;;32.45;4.88;;;11.60;99.90;;;;;;5080366;28;20242;-39
2024/01/24 11:27:33;;;;;;;31.88;6.18;;;11.60;99.90;;;;;;5082416;28;20688;-45
2024/01/24 11:30:11;;;;;;;42.22;7.43;;;11.60;99.90;;;;;;5084138;28;20251;-42
2024/01/24 11:32:55;;;;;;;25.05;4.50;;;11.60;99.90;;;;;;5082344;28;20304;-48
2024/01/24 11:35:38;;;;;;;33.83;6.78;;;11.60;99.90;;;;;;5065897;28;20192;-42
2024/01/24 11:38:27;;;;;;;38.90;6.60;;;11.60;99.90;;;;;;5083693;28;20213;-39
2024/01/24 11:41:10;;;;;;;30.40;6.13;;;11.60;99.90;;;;;;5084086;28;21232;-38
2024/01/24 11:43:36;;;;;;;41.60;6.60;;;11.60;99.90;;;;;;5083142;28;20949;-42
2024/01/24 11:46:06;;;;;;;32.15;6.53;;;11.60;99.90;;;;;;5083303;28;20594;-47
2024/01/24 11:48:34;;;;;;;23.65;4.43;;;11.60;99.90;;;;;;5083240;28;20343;-42
2024/01/24 11:51:18;;;;;;;33.20;5.55;;;11.60;99.90;;;;;;5083214;28;20196;-46
2024/01/24 11:53:44;;;;;;;36.05;6.20;;;11.60;99.90;;;;;;5082973;28;20248;-40
2024/01/24 11:56:16;;;;;;;34.70;6.75;;;11.60;99.90;;;;;;5083030;28;20189;-44
2024/01/24 11:58:42;;;;;;;27.42;4.93;;;11.50;99.90;;;;;;5083129;28;20193;-44
2024/01/24 12:01:10;;;;;;;42.38;6.20;;;11.50;99.90;;;;;;5083611;28;20197;-45
2024/01/24 12:03:36;;;;;;;37.10;6.22;;;11.50;99.90;;;;;;5083278;28;20186;-41
2024/01/24 12:06:06;;;;;;;33.65;5.22;;;11.50;99.90;;;;;;5083271;28;20182;-46
2024/01/24 12:08:32;;;;;;;31.88;6.15;;;11.50;99.90;;;;;;5082924;28;20218;-43
2024/01/24 12:10:58;;;;;;;40.50;6.53;;;11.50;99.90;;;;;;5083184;28;20186;-39
2024/01/24 12:13:27;;;;;;;32.80;6.05;;;11.50;99.90;;;;;;5083113;28;20994;-45
2024/01/24 12:15:55;;;;;;;29.00;5.43;;;11.50;99.90;;;;;;5082330;28;20190;-46
2024/01/24 12:18:20;;;;;;;34.53;6.00;;;11.60;99.90;;;;;;5083253;28;20190;-47
2024/01/24 12:20:49;;;;;;;35.80;6.20;;;11.60;99.90;;;;;;5083232;28;20673;-46
2024/01/24 12:23:15;;;;;;;36.67;5.80;;;11.60;99.90;;;;;;5082045;28;20625;-42
2024/01/24 12:25:42;;;;;;;32.28;6.35;;;11.60;99.90;;;;;;5083197;28;20186;-42
2024/01/24 12:28:09;;;;;;;29.48;5.88;;;11.60;99.90;;;;;;5082598;28;20221;-45
2024/01/24 12:30:35;;;;;;;16.20;3.72;;;11.60;99.90;;;;;;5083030;28;20181;-41
2024/01/24 12:33:03;;;;;;;23.50;4.63;;;11.60;99.90;;;;;;5082681;28;20306;-45
2024/01/24 12:35:30;;;;;;;31.30;5.82;;;11.60;99.90;;;;;;5082422;28;20251;-43
2024/01/24 12:38:04;;;;;;;21.17;4.03;;;11.60;99.90;;;;;;5064212;28;22200;-44